Time;durP1;ratioP1;P1;durP2;ratioP2;P2;SDS_P1;SDS_P2;PMS_P1;PMS_P2;Temp;Humidity;BMP_temperature;BMP_pressure;BME280_temperature;BME280_humidity;BME280_pressure;Samples;Min_cycle;Max_cycle;Signal;HPM_P1;HPM_P2
2023/09/25 14:14:51;;;;;;;2.90;1.60;;;;;;;18.18;90.73;98482.16;1236442;75;3997541;-69
2023/09/25 14:17:24;;;;;;;2.45;1.45;;;;;;;18.40;89.38;98491.69;1221607;75;2921580;-76
2023/09/25 14:19:57;;;;;;;1.05;0.90;;;;;;;18.58;94.75;98484.84;1222647;75;2942289;-72
2023/09/25 14:22:31;;;;;;;2.15;1.10;;;;;;;18.49;93.25;98488.63;1224275;75;2922555;-75
2023/09/25 14:25:04;;;;;;;2.30;1.60;;;;;;;18.59;91.51;98486.34;1224425;75;2925228;-76
2023/09/25 14:27:37;;;;;;;3.90;3.00;;;;;;;18.84;93.87;98496.34;1224732;75;2931973;-73
2023/09/25 14:30:15;;;;;;;6.85;4.55;;;;;;;18.61;95.62;98500.44;1226006;75;2912181;-74
2023/09/25 14:32:48;;;;;;;4.35;2.80;;;;;;;18.60;96.29;98496.16;1223943;75;2949358;-76
2023/09/25 14:35:21;;;;;;;2.95;1.30;;;;;;;18.63;100.00;98500.69;1224705;75;2917913;-75
2023/09/25 14:37:54;;;;;;;2.85;1.60;;;;;;;18.53;97.33;98492.66;1225617;75;2923054;-71
2023/09/25 14:40:26;;;;;;;1.70;1.20;;;;;;;18.70;98.65;98491.84;1226033;75;2918305;-78
2023/09/25 14:43:00;;;;;;;2.30;1.60;;;;;;;18.71;97.03;98487.78;1225603;75;2935230;-73
2023/09/25 14:45:37;;;;;;;3.00;1.15;;;;;;;18.80;96.94;98497.88;1222220;75;3059288;-73
2023/09/25 14:48:10;;;;;;;2.60;1.40;;;;;;;18.61;94.12;98503.97;1225146;75;2914891;-75
2023/09/25 14:50:43;;;;;;;2.25;1.35;;;;;;;18.61;94.29;98497.66;1225736;75;2921315;-75
2023/09/25 14:53:16;;;;;;;3.10;1.50;;;;;;;18.78;95.62;98503.91;1193177;75;5477645;-75
2023/09/25 14:55:49;;;;;;;1.70;1.40;;;;;;;18.78;94.27;98506.69;1219899;75;3093851;-76
2023/09/25 14:58:21;;;;;;;1.80;1.40;;;;;;;18.80;96.41;98508.97;1225524;75;2917329;-74
2023/09/25 15:01:01;;;;;;;2.60;1.65;;;;;;;18.78;98.28;98511.50;1225398;75;2927030;-76
2023/09/25 15:03:34;;;;;;;2.70;1.80;;;;;;;18.63;100.00;98507.00;1221591;75;3014300;-74
2023/09/25 15:06:07;;;;;;;5.25;2.25;;;;;;;18.58;99.87;98512.56;1221890;75;3063991;-73
2023/09/25 15:08:40;;;;;;;3.20;1.95;;;;;;;18.66;99.98;98503.19;1224874;75;2920915;-73
2023/09/25 15:11:13;;;;;;;3.55;1.80;;;;;;;18.67;99.60;98506.72;1224923;75;2923927;-77
2023/09/25 15:13:46;;;;;;;3.30;1.90;;;;;;;18.62;97.88;98505.50;1225860;75;2918225;-75
2023/09/25 15:16:21;;;;;;;5.20;3.70;;;;;;;18.62;97.55;98507.50;1225708;75;2920503;-73
2023/09/25 15:18:53;;;;;;;4.35;2.90;;;;;;;18.84;95.27;98509.47;1226141;75;2924262;-73
2023/09/25 15:21:26;;;;;;;3.40;1.95;;;;;;;18.78;96.99;98509.47;1211353;75;4015893;-74
2023/09/25 15:23:59;;;;;;;3.40;1.55;;;;;;;18.78;99.51;98505.94;1225867;75;2924341;-74
2023/09/25 15:26:31;;;;;;;2.25;1.60;;;;;;;18.64;100.00;98514.06;1219547;75;3030751;-76
2023/09/25 15:29:04;;;;;;;2.45;1.40;;;;;;;18.55;97.48;98516.38;1225123;75;2911136;-76
2023/09/25 15:31:39;;;;;;;1.35;1.20;;;;;;;18.65;96.16;98517.59;1220332;75;2988269;-73
2023/09/25 15:34:12;;;;;;;2.00;1.35;;;;;;;19.00;96.36;98511.41;1223807;75;2922522;-73
2023/09/25 15:36:45;;;;;;;1.10;1.00;;;;;;;19.05;96.27;98518.16;1225144;75;2928785;-75
2023/09/25 15:39:17;;;;;;;0.90;0.60;;;;;;;19.09;94.35;98502.00;1223991;75;2923685;-74
2023/09/25 15:41:50;;;;;;;1.55;0.85;;;;;;;18.90;97.80;98512.94;1216903;75;3061186;-71
2023/09/25 15:44:24;;;;;;;2.85;1.15;;;;;;;18.67;100.00;98513.03;1190786;75;5647735;-77
2023/09/25 15:46:59;;;;;;;1.25;0.95;;;;;;;18.71;100.00;98515.53;1223684;75;2919972;-79
2023/09/25 15:49:33;;;;;;;1.60;1.20;;;;;;;18.78;100.00;98519.81;1224448;75;2923148;-78
2023/09/25 15:52:06;;;;;;;1.65;0.90;;;;;;;18.76;100.00;98520.34;1222413;75;2921696;-76
2023/09/25 15:54:38;;;;;;;0.90;0.80;;;;;;;18.69;100.00;98526.41;1218655;75;3082028;-76
2023/09/25 15:57:11;;;;;;;2.45;1.70;;;;;;;18.39;100.00;98529.00;1221879;75;3075235;-76
2023/09/25 15:59:43;;;;;;;1.90;1.10;;;;;;;18.42;100.00;98525.94;1224056;75;2934275;-76
2023/09/25 16:02:19;;;;;;;1.85;1.15;;;;;;;18.50;100.00;98526.22;1224299;75;2912268;-77
2023/09/25 16:04:52;;;;;;;1.40;1.10;;;;;;;18.50;100.00;98531.75;1223980;75;2917133;-78
2023/09/25 16:07:26;;;;;;;2.10;1.10;;;;;;;18.57;100.00;98519.34;1222104;75;3073339;-74
2023/09/25 16:09:58;;;;;;;1.55;1.25;;;;;;;18.77;100.00;98521.09;1224965;75;2919846;-75
2023/09/25 16:12:32;;;;;;;1.45;0.95;;;;;;;18.88;100.00;98515.47;1224687;75;2918278;-74
2023/09/25 16:15:05;;;;;;;1.30;1.00;;;;;;;18.94;100.00;98516.97;1221057;75;3022309;-76
2023/09/25 16:17:40;;;;;;;1.00;0.80;;;;;;;18.92;100.00;98515.97;1221993;75;2951348;-79
2023/09/25 16:20:13;;;;;;;1.20;0.90;;;;;;;18.94;100.00;98513.44;1224184;75;2932133;-73
2023/09/25 16:22:46;;;;;;;1.20;0.80;;;;;;;18.70;100.00;98519.56;1223975;75;2925684;-76
2023/09/25 16:25:19;;;;;;;1.70;1.20;;;;;;;18.60;100.00;98519.09;1224477;75;2918664;-77
2023/09/25 16:27:51;;;;;;;1.10;0.95;;;;;;;18.62;100.00;98515.84;1222723;75;2933854;-74
2023/09/25 16:30:24;;;;;;;4.60;3.35;;;;;;;18.50;100.00;98515.13;1219899;75;3003844;-74
2023/09/25 16:32:59;;;;;;;4.70;3.50;;;;;;;18.22;100.00;98518.69;1223654;75;2916633;-74
2023/09/25 16:35:32;;;;;;;3.90;2.40;;;;;;;17.99;100.00;98522.75;1218975;75;3025749;-73
2023/09/25 16:38:05;;;;;;;2.50;1.90;;;;;;;17.98;100.00;98518.50;1223398;75;2917382;-74
2023/09/25 16:40:41;;;;;;;2.20;1.50;;;;;;;17.85;100.00;98519.00;1223041;75;2922634;-75
2023/09/25 16:43:13;;;;;;;2.10;1.50;;;;;;;17.88;100.00;98524.28;1216411;75;3111387;-76
2023/09/25 16:45:46;;;;;;;1.60;1.25;;;;;;;18.04;100.00;98520.00;1222542;75;2925296;-77
2023/09/25 16:48:21;;;;;;;1.85;1.30;;;;;;;17.85;100.00;98522.53;1222915;75;2911171;-78
2023/09/25 16:50:54;;;;;;;;;;;;;;;17.89;100.00;98530.56;1197557;75;4025191;-75
2023/09/25 16:53:26;;;;;;;1.80;1.20;;;;;;;17.90;100.00;98525.81;1219799;75;3020260;-75
2023/09/25 16:56:00;;;;;;;1.90;0.95;;;;;;;17.85;100.00;98530.84;1223680;75;2921273;-77
2023/09/25 16:58:33;;;;;;;1.90;1.00;;;;;;;17.79;100.00;98532.81;1210093;75;4013729;-76
2023/09/25 17:01:06;;;;;;;3.35;1.90;;;;;;;17.66;100.00;98532.59;1224790;75;2923500;-77
2023/09/25 17:03:41;;;;;;;2.95;1.65;;;;;;;17.56;100.00;98537.59;1220824;75;3092957;-79
2023/09/25 17:06:14;;;;;;;3.05;1.75;;;;;;;17.53;100.00;98538.59;1224340;75;2919957;-77
2023/09/25 17:08:47;;;;;;;2.40;1.65;;;;;;;17.34;100.00;98534.78;1221184;75;3038782;-76
2023/09/25 17:11:24;;;;;;;3.30;2.00;;;;;;;17.32;100.00;98543.63;1220154;75;3100949;-78
2023/09/25 17:13:57;;;;;;;2.35;1.40;;;;;;;17.00;100.00;98538.25;1209890;75;4005707;-80
2023/09/25 17:16:30;;;;;;;3.35;1.70;;;;;;;17.02;100.00;98532.22;1221614;75;3022406;-77
2023/09/25 17:19:06;;;;;;;1.70;1.10;;;;;;;16.98;100.00;98535.22;1223204;75;2928347;-77
2023/09/25 17:21:39;;;;;;;1.60;1.20;;;;;;;17.03;100.00;98537.25;1223170;75;2958649;-76
2023/09/25 17:24:13;;;;;;;1.25;1.00;;;;;;;17.03;100.00;98530.97;1221866;75;2919964;-77
2023/09/25 17:26:45;;;;;;;1.70;1.15;;;;;;;16.91;100.00;98538.47;1224392;75;2916846;-78
2023/09/25 17:29:18;;;;;;;1.20;1.10;;;;;;;16.90;100.00;98536.94;1221856;75;2980966;-77
2023/09/25 17:31:50;;;;;;;1.85;1.40;;;;;;;16.60;100.00;98539.31;1217410;75;3024803;-78
2023/09/25 17:34:28;;;;;;;1.90;1.20;;;;;;;16.80;100.00;98539.16;1223156;75;2933588;-77
2023/09/25 17:37:03;;;;;;;2.10;1.30;;;;;;;16.70;100.00;98531.56;1223240;75;2921392;-74
2023/09/25 17:39:35;;;;;;;1.90;1.30;;;;;;;16.54;100.00;98538.50;1208808;75;4019269;-81
2023/09/25 17:42:08;;;;;;;2.30;1.80;;;;;;;16.20;100.00;98546.63;1209521;75;4016097;-77
2023/09/25 17:44:41;;;;;;;2.60;1.50;;;;;;;16.14;100.00;98543.81;1223216;75;2891370;-74
2023/09/25 17:47:13;;;;;;;4.85;1.55;;;;;;;16.29;100.00;98548.44;1223921;75;2921469;-78
2023/09/25 17:49:49;;;;;;;2.25;1.75;;;;;;;16.39;100.00;98552.50;1223034;75;2891517;-80
2023/09/25 17:52:21;;;;;;;4.70;2.35;;;;;;;16.39;100.00;98560.81;1223368;75;2921853;-79
2023/09/25 17:54:54;;;;;;;3.20;1.70;;;;;;;16.50;100.00;98554.56;1219201;75;3022250;-75
2023/09/25 17:57:27;;;;;;;1.70;1.50;;;;;;;16.37;100.00;98564.06;1209198;75;4085559;-79
2023/09/25 17:59:59;;;;;;;1.60;1.30;;;;;;;16.17;100.00;98562.16;1224087;75;2914017;-79
2023/09/25 18:02:32;;;;;;;1.60;1.25;;;;;;;16.19;100.00;98550.63;1223326;75;2919462;-77
2023/09/25 18:05:09;;;;;;;1.70;1.60;;;;;;;16.32;100.00;98556.47;1224092;75;2911956;-75
2023/09/25 18:07:41;;;;;;;2.70;1.95;;;;;;;16.31;100.00;98559.75;1220430;75;3091113;-80
2023/09/25 18:10:14;;;;;;;2.10;1.70;;;;;;;16.14;100.00;98568.69;1223096;75;2924547;-77
2023/09/25 18:12:47;;;;;;;1.75;1.45;;;;;;;16.12;100.00;98557.38;1209308;75;3796929;-75
2023/09/25 18:15:22;;;;;;;1.65;1.40;;;;;;;16.19;100.00;98556.91;1210692;75;3794525;-76
2023/09/25 18:17:55;;;;;;;1.80;1.50;;;;;;;16.19;100.00;98551.38;1224626;75;2916703;-77
2023/09/25 18:20:31;;;;;;;2.05;1.10;;;;;;;16.08;100.00;98558.84;1220789;75;3033030;-74
2023/09/25 18:23:03;;;;;;;2.75;1.80;;;;;;;15.75;100.00;98563.63;1223583;75;2930801;-78
2023/09/25 18:25:38;;;;;;;2.80;1.70;;;;;;;15.52;100.00;98572.91;1207946;75;3964820;-77
2023/09/25 18:28:11;;;;;;;2.55;1.65;;;;;;;15.59;100.00;98571.72;1219813;75;2963084;-74
2023/09/25 18:30:44;;;;;;;2.20;1.55;;;;;;;15.71;100.00;98571.34;1223007;75;2914207;-76
2023/09/25 18:33:17;;;;;;;1.50;1.30;;;;;;;15.81;100.00;98560.88;1220528;75;2971430;-77
2023/09/25 18:35:52;;;;;;;1.75;1.50;;;;;;;15.58;100.00;98562.66;1223586;75;2923316;-79
2023/09/25 18:38:25;;;;;;;1.45;1.20;;;;;;;15.68;100.00;98563.25;1222528;75;2926796;-78
2023/09/25 18:40:57;;;;;;;0.95;0.90;;;;;;;15.67;100.00;98570.78;1221241;67;3082787;-76
2023/09/25 18:43:30;;;;;;;1.40;1.10;;;;;;;15.55;100.00;98572.66;1214414;75;3077950;-79
2023/09/25 18:46:02;;;;;;;1.50;1.10;;;;;;;15.42;100.00;98571.56;1218827;75;3046325;-77
2023/09/25 18:48:35;;;;;;;2.45;1.15;;;;;;;15.53;100.00;98571.66;1219607;75;3034308;-80
2023/09/25 18:51:11;;;;;;;2.30;1.25;;;;;;;15.34;100.00;98566.47;1222344;68;2917590;-77
2023/09/25 18:53:44;;;;;;;2.05;1.65;;;;;;;15.07;100.00;98572.41;1217531;75;3081207;-74
2023/09/25 18:56:21;;;;;;;3.85;2.30;;;;;;;14.95;100.00;98571.53;1220426;75;2955885;-76
2023/09/25 18:58:54;;;;;;;2.90;2.00;;;;;;;15.24;100.00;98567.09;1223007;75;2956220;-72
2023/09/25 19:01:28;;;;;;;2.20;1.90;;;;;;;15.24;100.00;98567.09;1223021;75;2960686;-76
2023/09/25 19:04:00;;;;;;;2.00;1.25;;;;;;;15.20;100.00;98570.06;1220644;75;3022909;-78
2023/09/25 19:06:36;;;;;;;3.95;1.60;;;;;;;15.19;100.00;98576.06;1224591;75;2938348;-78
2023/09/25 19:09:08;;;;;;;1.60;1.30;;;;;;;15.01;100.00;98577.09;1208109;75;3926254;-74
2023/09/25 19:11:41;;;;;;;1.65;1.30;;;;;;;15.04;100.00;98584.41;1210312;75;4003184;-77
2023/09/25 19:14:14;;;;;;;1.80;1.30;;;;;;;14.83;100.00;98580.91;1220372;75;2995703;-76
2023/09/25 19:16:46;;;;;;;1.80;1.30;;;;;;;14.76;100.00;98581.31;1218988;75;3061655;-78
2023/09/25 19:19:22;;;;;;;2.15;1.40;;;;;;;14.84;100.00;98585.16;1225161;75;2959186;-78
2023/09/25 19:21:57;;;;;;;2.20;1.10;;;;;;;14.75;100.00;98585.31;1223108;75;3057307;-77
2023/09/25 19:24:30;;;;;;;1.50;1.00;;;;;;;14.82;100.00;98585.66;1226638;75;2916180;-75
2023/09/25 19:27:03;;;;;;;1.75;1.30;;;;;;;14.72;100.00;98592.56;1224122;75;2923426;-76
2023/09/25 19:29:36;;;;;;;1.20;1.10;;;;;;;14.59;100.00;98601.13;1225861;75;2923234;-76
2023/09/25 19:32:09;;;;;;;1.75;1.10;;;;;;;14.65;100.00;98596.47;1226069;75;2926954;-76
2023/09/25 19:34:41;;;;;;;2.75;1.60;;;;;;;14.56;100.00;98593.84;1225763;75;2913030;-75
2023/09/25 19:37:20;;;;;;;1.55;1.40;;;;;;;14.65;100.00;98592.97;1224956;75;2921883;-74
2023/09/25 19:39:54;;;;;;;1.35;1.15;;;;;;;14.49;100.00;98602.47;1226857;75;2924588;-77
2023/09/25 19:42:27;;;;;;;2.15;1.70;;;;;;;14.48;100.00;98609.22;1225337;75;2926829;-74
2023/09/25 19:45:00;;;;;;;2.95;1.40;;;;;;;14.55;100.00;98605.31;1225143;75;2927107;-77
2023/09/25 19:47:32;;;;;;;2.15;1.45;;;;;;;14.48;100.00;98600.97;1213014;75;3946419;-76
2023/09/25 19:50:05;;;;;;;2.00;1.50;;;;;;;14.52;100.00;98598.00;1223915;75;3047121;-78
2023/09/25 19:52:41;;;;;;;3.60;1.60;;;;;;;14.44;100.00;98600.41;1220767;75;3060638;-77
2023/09/25 19:55:14;;;;;;;3.80;1.70;;;;;;;14.37;100.00;98604.28;1223980;75;2958560;-77
2023/09/25 19:57:46;;;;;;;3.65;1.65;;;;;;;14.43;100.00;98604.38;1195871;75;3999014;-76
2023/09/25 20:00:20;;;;;;;4.55;1.60;;;;;;;14.42;100.00;98608.38;1222791;75;3083032;-77
2023/09/25 20:02:52;;;;;;;3.45;1.50;;;;;;;14.37;100.00;98607.06;1223961;75;3068162;-75
2023/09/25 20:05:25;;;;;;;1.95;1.35;;;;;;;14.26;100.00;98602.16;1223506;75;3058744;-77
2023/09/25 20:08:01;;;;;;;4.85;1.75;;;;;;;14.27;100.00;98600.91;1222830;75;3025834;-77
2023/09/25 20:10:35;;;;;;;2.65;1.40;;;;;;;14.26;100.00;98604.13;1226720;75;2920916;-77
2023/09/25 20:13:08;;;;;;;3.30;1.30;;;;;;;14.27;100.00;98602.91;1225913;75;2920352;-75
2023/09/25 20:15:41;;;;;;;2.30;1.60;;;;;;;14.14;100.00;98616.19;1224737;75;2924508;-73
2023/09/25 20:18:13;;;;;;;2.10;1.65;;;;;;;14.01;100.00;98609.00;1224187;75;2983113;-76
2023/09/25 20:20:56;;;;;;;2.95;1.95;;;;;;;13.96;100.00;98606.16;1223471;75;3082251;-74
2023/09/25 20:23:31;;;;;;;2.45;1.65;;;;;;;14.01;100.00;98605.50;1222548;75;3008760;-78
2023/09/25 20:26:10;;;;;;;2.20;1.80;;;;;;;13.92;100.00;98609.09;1226008;75;2938561;-75
2023/09/25 20:28:42;;;;;;;;;;;;;;;13.98;100.00;98609.19;1213738;75;3893676;-75
2023/09/25 20:31:15;;;;;;;3.20;2.30;;;;;;;13.89;100.00;98607.28;1214942;75;3884919;-79
2023/09/25 20:33:47;;;;;;;3.20;2.40;;;;;;;13.93;100.00;98610.63;1227506;75;2938407;-77
2023/09/25 20:36:20;;;;;;;2.50;1.90;;;;;;;13.97;100.00;98610.41;1221557;75;3026789;-76
2023/09/25 20:38:55;;;;;;;2.65;2.00;;;;;;;13.89;100.00;98607.28;1226926;75;2931388;-74
2023/09/25 20:41:28;;;;;;;1.95;1.75;;;;;;;13.84;100.00;98599.72;1226169;75;2918385;-78
2023/09/25 20:44:01;;;;;;;3.85;2.15;;;;;;;13.78;100.00;98601.59;1224959;75;2917218;-75
2023/09/25 20:46:33;;;;;;;3.50;2.10;;;;;;;13.70;100.00;98606.72;1227566;75;2921794;-78
2023/09/25 20:49:06;;;;;;;3.40;2.20;;;;;;;13.58;100.00;98602.25;1227419;75;2930854;-75
2023/09/25 20:51:39;;;;;;;2.75;2.20;;;;;;;13.70;100.00;98603.97;1223116;75;2989143;-81
2023/09/25 20:54:14;;;;;;;3.50;2.30;;;;;;;13.63;100.00;98607.09;1225324;75;2950746;-72
2023/09/25 20:56:50;;;;;;;2.35;1.90;;;;;;;13.62;100.00;98605.59;1227302;75;2944762;-73
2023/09/25 20:59:22;;;;;;;3.10;2.30;;;;;;;13.60;100.00;98602.53;1226805;75;2926178;-77
2023/09/25 21:01:55;;;;;;;2.65;2.00;;;;;;;13.54;100.00;98601.66;1227021;75;2925311;-76
2023/09/25 21:04:28;;;;;;;2.60;1.80;;;;;;;13.52;100.00;98596.66;1211171;75;3794844;-76
2023/09/25 21:07:00;;;;;;;3.05;2.00;;;;;;;13.50;100.00;98595.63;1215340;75;3787305;-73
2023/09/25 21:09:36;;;;;;;2.70;1.80;;;;;;;13.42;100.00;98586.94;1213907;75;3813946;-75
2023/09/25 21:12:10;;;;;;;2.85;1.90;;;;;;;13.40;100.00;98584.69;1225725;75;2920146;-76
2023/09/25 21:14:43;;;;;;;2.25;1.60;;;;;;;13.38;100.00;98589.91;1213499;75;3824331;-73
2023/09/25 21:17:15;;;;;;;1.90;1.30;;;;;;;13.38;100.00;98580.91;1202720;75;4787169;-75
2023/09/25 21:19:48;;;;;;;2.05;1.60;;;;;;;13.34;100.00;98585.81;1207386;75;4065277;-76
2023/09/25 21:22:21;;;;;;;1.70;1.40;;;;;;;13.30;100.00;98577.75;1211895;75;3795018;-77
2023/09/25 21:24:56;;;;;;;2.45;1.95;;;;;;;13.33;100.00;98582.31;1227126;75;2922818;-78
2023/09/25 21:27:29;;;;;;;1.90;1.40;;;;;;;13.13;100.00;98573.88;1198895;75;4903902;-73
2023/09/25 21:30:02;;;;;;;2.20;1.40;;;;;;;13.19;100.00;98583.75;1221734;75;2988661;-77
2023/09/25 21:32:34;;;;;;;2.45;1.65;;;;;;;13.14;100.00;98586.41;1226559;75;2916836;-74
2023/09/25 21:35:08;;;;;;;2.20;1.40;;;;;;;13.12;100.00;98581.38;1152795;75;8817899;-75
2023/09/25 21:37:41;;;;;;;3.45;1.70;;;;;;;13.10;100.00;98580.31;1226321;75;2924768;-76
2023/09/25 21:40:17;;;;;;;2.10;1.70;;;;;;;12.88;100.00;98583.38;1225150;75;2986806;-76
2023/09/25 21:42:50;;;;;;;2.50;2.05;;;;;;;13.05;100.00;98581.72;1221353;75;3051798;-74
2023/09/25 21:45:22;;;;;;;2.30;1.75;;;;;;;12.92;100.00;98575.75;1219890;67;3068520;-77
2023/09/25 21:47:55;;;;;;;1.85;1.50;;;;;;;12.88;100.00;98581.41;1195041;75;4088692;-78
2023/09/25 21:50:28;;;;;;;2.90;1.75;;;;;;;12.81;100.00;98572.75;1222574;75;3045157;-79
2023/09/25 21:53:00;;;;;;;2.25;1.95;;;;;;;12.86;100.00;98569.34;1211059;75;4013883;-78
2023/09/25 21:55:35;;;;;;;2.10;1.30;;;;;;;12.75;100.00;98572.66;1227448;75;2922382;-74
2023/09/25 21:58:08;;;;;;;3.10;1.80;;;;;;;12.58;100.00;98569.53;1212029;75;3852098;-77
2023/09/25 22:00:41;;;;;;;2.40;1.50;;;;;;;12.66;100.00;98573.44;1227163;75;2918606;-74
2023/09/25 22:03:14;;;;;;;2.00;1.30;;;;;;;12.75;100.00;98572.66;1224120;75;3066139;-79
2023/09/25 22:05:47;;;;;;;2.05;1.25;;;;;;;12.65;100.00;98566.44;1221986;75;3035879;-75
2023/09/25 22:08:19;;;;;;;2.05;1.40;;;;;;;12.64;100.00;98567.66;1223815;75;3055275;-75
2023/09/25 22:10:55;;;;;;;1.50;1.30;;;;;;;12.76;100.00;98561.16;1222740;75;3097304;-73
2023/09/25 22:13:28;;;;;;;1.10;0.95;;;;;;;12.71;100.00;98558.31;1210333;75;3997317;-77
2023/09/25 22:16:04;;;;;;;1.75;1.40;;;;;;;12.74;100.00;98560.88;1226568;75;2923473;-76
2023/09/25 22:18:37;;;;;;;1.20;1.10;;;;;;;12.69;100.00;98567.00;1209380;75;3915579;-76
2023/09/25 22:21:16;;;;;;;1.65;1.25;;;;;;;12.50;100.00;98560.88;1223403;75;2986567;-77
2023/09/25 22:23:49;;;;;;;1.30;1.10;;;;;;;12.61;100.00;98562.34;1225616;75;2921379;-76
2023/09/25 22:26:24;;;;;;;1.55;1.20;;;;;;;12.59;100.00;98562.81;1224326;75;3021910;-77
2023/09/25 22:28:57;;;;;;;1.30;1.20;;;;;;;12.62;100.00;98555.63;1223940;75;3016422;-79
2023/09/25 22:31:29;;;;;;;2.05;1.45;;;;;;;12.49;100.00;98555.84;1220083;75;3091796;-74
2023/09/25 22:34:02;;;;;;;1.70;1.40;;;;;;;12.59;100.00;98557.31;1219944;75;3119840;-76
2023/09/25 22:36:35;;;;;;;1.85;1.40;;;;;;;12.48;100.00;98562.56;1226907;75;2924187;-77
2023/09/25 22:39:10;;;;;;;1.40;1.10;;;;;;;12.50;100.00;98551.88;1225515;75;2932582;-77
2023/09/25 22:41:45;;;;;;;1.05;0.95;;;;;;;12.49;100.00;98553.88;1226252;75;2921145;-78
2023/09/25 22:44:18;;;;;;;1.30;0.90;;;;;;;12.35;100.00;98544.31;1201499;75;3872816;-75
2023/09/25 22:46:51;;;;;;;1.25;1.00;;;;;;;12.42;100.00;98553.47;1221725;75;3060090;-75
2023/09/25 22:49:23;;;;;;;1.70;1.00;;;;;;;12.32;100.00;98545.25;1222913;75;3095407;-76
2023/09/25 22:51:56;;;;;;;1.50;1.20;;;;;;;12.24;100.00;98560.56;1220302;75;3080805;-76
2023/09/25 22:54:29;;;;;;;2.60;1.20;;;;;;;12.33;100.00;98552.25;1209081;75;4055015;-75
2023/09/25 22:57:04;;;;;;;0.90;0.90;;;;;;;12.27;100.00;98550.63;1224979;75;3023129;-78
2023/09/25 22:59:38;;;;;;;1.00;0.90;;;;;;;12.23;100.00;98542.56;1224322;75;2991348;-76
2023/09/25 23:02:22;;;;;;;1.30;1.10;;;;;;;12.25;100.00;98548.34;1222386;75;2989910;-76
2023/09/25 23:04:55;;;;;;;1.00;0.90;;;;;;;12.17;100.00;98549.94;1224741;75;3032288;-76
2023/09/25 23:07:27;;;;;;;4.20;1.85;;;;;;;12.15;100.00;98544.88;1212819;75;3946202;-74
2023/09/25 23:10:00;;;;;;;1.90;1.70;;;;;;;12.22;100.00;98552.03;1227522;75;2916165;-78
2023/09/25 23:12:35;;;;;;;1.45;1.15;;;;;;;12.25;100.00;98550.34;1223423;75;3076188;-75
2023/09/25 23:15:11;;;;;;;2.25;1.20;;;;;;;12.18;100.00;98547.94;1209323;67;3970279;-77
2023/09/25 23:17:45;;;;;;;1.60;1.20;;;;;;;12.27;100.00;98545.16;1221934;75;3051216;-74
2023/09/25 23:20:20;;;;;;;1.20;1.10;;;;;;;12.24;100.00;98543.31;1224222;75;3031027;-73
2023/09/25 23:22:56;;;;;;;3.05;1.50;;;;;;;12.20;100.00;98545.50;1222789;75;3033241;-74
2023/09/25 23:25:29;;;;;;;1.70;1.00;;;;;;;12.18;100.00;98542.44;1224316;75;3050434;-78
2023/09/25 23:28:05;;;;;;;1.70;1.10;;;;;;;12.08;100.00;98547.22;1224834;75;2924590;-75
2023/09/25 23:30:38;;;;;;;1.25;1.05;;;;;;;11.93;100.00;98545.13;1223801;75;3063227;-75
2023/09/25 23:33:12;;;;;;;1.95;1.55;;;;;;;11.78;100.00;98548.97;1198228;75;4927350;-78
2023/09/25 23:35:46;;;;;;;2.60;1.75;;;;;;;11.74;100.00;98546.38;1221993;75;2998048;-75
2023/09/25 23:38:19;;;;;;;2.05;1.65;;;;;;;11.79;100.00;98545.00;1221945;75;3033627;-77
2023/09/25 23:40:53;;;;;;;1.90;1.60;;;;;;;11.85;100.00;98532.16;1227084;75;2920685;-76
2023/09/25 23:43:28;;;;;;;1.90;1.45;;;;;;;11.85;100.00;98532.94;1217969;75;3102517;-76
2023/09/25 23:46:02;;;;;;;1.90;1.40;;;;;;;11.73;100.00;98531.91;1223261;75;3100872;-75
2023/09/25 23:48:36;;;;;;;1.65;1.25;;;;;;;11.84;100.00;98528.66;1226779;75;2922247;-75
2023/09/25 23:51:09;;;;;;;2.05;1.40;;;;;;;11.85;100.00;98526.69;1197605;75;4034062;-77
2023/09/25 23:53:41;;;;;;;2.25;1.80;;;;;;;11.72;100.00;98524.91;1224010;75;2985460;-74
2023/09/25 23:56:14;;;;;;;1.80;1.45;;;;;;;11.89;100.00;98517.09;1226022;75;2914444;-78
2023/09/25 23:58:49;;;;;;;1.30;1.20;;;;;;;11.89;100.00;98517.09;1223234;75;3092532;-77
